sensor_id;sensor_type;location;lat;lon;timestamp;pressure;altitude;pressure_sealevel;temperature;humidity
35519;BME280;21627;48.216;16.482;2023-02-22T00:01:00;99891.88;;;10.19;90.66
35519;BME280;21627;48.216;16.482;2023-02-22T00:03:33;99881.53;;;10.16;91.18
35519;BME280;21627;48.216;16.482;2023-02-22T00:06:03;99891.88;;;10.16;91.06
35519;BME280;21627;48.216;16.482;2023-02-22T00:08:35;99878.91;;;10.07;91.52
35519;BME280;21627;48.216;16.482;2023-02-22T00:11:06;99894.41;;;10.10;92.15
35519;BME280;21627;48.216;16.482;2023-02-22T00:13:37;99875.44;;;10.00;92.14
35519;BME280;21627;48.216;16.482;2023-02-22T00:16:05;99879.75;;;10.03;92.54
35519;BME280;21627;48.216;16.482;2023-02-22T00:18:32;99879.75;;;10.00;93.49
35519;BME280;21627;48.216;16.482;2023-02-22T00:21:04;99887.47;;;9.96;94.03
35519;BME280;21627;48.216;16.482;2023-02-22T00:23:31;99876.25;;;9.88;94.64
35519;BME280;21627;48.216;16.482;2023-02-22T00:25:59;99891.75;;;9.91;94.64
35519;BME280;21627;48.216;16.482;2023-02-22T00:28:27;99898.66;;;9.91;94.67
35519;BME280;21627;48.216;16.482;2023-02-22T00:30:57;99894.31;;;9.87;94.59
35519;BME280;21627;48.216;16.482;2023-02-22T00:33:25;99893.44;;;9.85;94.79
35519;BME280;21627;48.216;16.482;2023-02-22T00:35:53;99892.59;;;9.83;95.27
35519;BME280;21627;48.216;16.482;2023-02-22T00:38:21;99896.00;;;9.80;95.58
35519;BME280;21627;48.216;16.482;2023-02-22T00:40:48;99895.97;;;9.77;95.82
35519;BME280;21627;48.216;16.482;2023-02-22T00:43:15;99895.97;;;9.71;96.12
35519;BME280;21627;48.216;16.482;2023-02-22T00:45:42;99889.91;;;9.69;96.28
35519;BME280;21627;48.216;16.482;2023-02-22T00:48:13;99887.31;;;9.64;96.52
35519;BME280;21627;48.216;16.482;2023-02-22T00:50:41;99885.56;;;9.59;96.78
35519;BME280;21627;48.216;16.482;2023-02-22T00:53:09;99876.88;;;9.47;97.26
35519;BME280;21627;48.216;16.482;2023-02-22T00:55:37;99877.72;;;9.46;97.40
35519;BME280;21627;48.216;16.482;2023-02-22T00:58:06;99890.66;;;9.49;97.74
35519;BME280;21627;48.216;16.482;2023-02-22T01:00:40;99881.13;;;9.42;97.99
35519;BME280;21627;48.216;16.482;2023-02-22T01:03:17;99880.28;;;9.42;98.03
35519;BME280;21627;48.216;16.482;2023-02-22T01:05:45;99880.25;;;9.37;98.29
35519;BME280;21627;48.216;16.482;2023-02-22T01:08:15;99886.28;;;9.36;98.44
35519;BME280;21627;48.216;16.482;2023-02-22T01:10:43;99873.28;;;9.27;98.85
35519;BME280;21627;48.216;16.482;2023-02-22T01:13:13;99881.03;;;9.24;99.35
35519;BME280;21627;48.216;16.482;2023-02-22T01:15:42;99886.19;;;9.22;99.28
35519;BME280;21627;48.216;16.482;2023-02-22T01:18:11;99865.47;;;9.13;99.78
35519;BME280;21627;48.216;16.482;2023-02-22T01:20:39;99883.53;;;9.16;100.00
35519;BME280;21627;48.216;16.482;2023-02-22T01:23:06;99871.47;;;9.10;100.00
35519;BME280;21627;48.216;16.482;2023-02-22T01:25:34;99865.41;;;9.07;100.00
35519;BME280;21627;48.216;16.482;2023-02-22T01:28:04;99864.53;;;9.06;100.00
35519;BME280;21627;48.216;16.482;2023-02-22T01:30:33;99878.34;;;9.12;100.00
35519;BME280;21627;48.216;16.482;2023-02-22T01:33:05;99857.66;;;9.04;100.00
35519;BME280;21627;48.216;16.482;2023-02-22T01:35:36;99873.19;;;9.10;100.00
35519;BME280;21627;48.216;16.482;2023-02-22T01:38:08;99861.09;;;9.06;100.00
35519;BME280;21627;48.216;16.482;2023-02-22T01:40:39;99859.38;;;9.06;100.00
35519;BME280;21627;48.216;16.482;2023-02-22T01:43:28;99862.88;;;9.12;100.00
35519;BME280;21627;48.216;16.482;2023-02-22T01:46:18;99864.59;;;9.14;100.00
35519;BME280;21627;48.216;16.482;2023-02-22T01:48:59;99859.47;;;9.16;100.00
35519;BME280;21627;48.216;16.482;2023-02-22T01:51:39;99860.31;;;9.13;100.00
35519;BME280;21627;48.216;16.482;2023-02-22T01:54:43;99856.88;;;9.14;100.00
35519;BME280;21627;48.216;16.482;2023-02-22T01:57:30;99858.59;;;9.17;100.00
35519;BME280;21627;48.216;16.482;2023-02-22T02:00:09;99834.47;;;9.05;100.00
35519;BME280;21627;48.216;16.482;2023-02-22T02:02:51;99860.34;;;9.19;100.00
35519;BME280;21627;48.216;16.482;2023-02-22T02:05:20;99851.72;;;9.13;100.00
35519;BME280;21627;48.216;16.482;2023-02-22T02:07:50;99843.94;;;9.11;100.00
35519;BME280;21627;48.216;16.482;2023-02-22T02:10:18;99849.97;;;9.10;100.00
35519;BME280;21627;48.216;16.482;2023-02-22T02:12:50;99856.91;;;9.17;100.00
35519;BME280;21627;48.216;16.482;2023-02-22T02:17:53;99857.75;;;9.19;100.00
35519;BME280;21627;48.216;16.482;2023-02-22T02:32:54;99835.34;;;9.10;100.00
35519;BME280;21627;48.216;16.482;2023-02-22T02:35:49;99851.75;;;9.19;100.00
35519;BME280;21627;48.216;16.482;2023-02-22T02:41:40;99834.50;;;9.12;100.00
35519;BME280;21627;48.216;16.482;2023-02-22T02:44:23;99843.13;;;9.14;100.00
35519;BME280;21627;48.216;16.482;2023-02-22T02:47:04;99858.66;;;9.20;100.00
35519;BME280;21627;48.216;16.482;2023-02-22T02:52:31;99838.81;;;9.14;100.00
35519;BME280;21627;48.216;16.482;2023-02-22T02:55:03;99851.75;;;9.22;100.00
35519;BME280;21627;48.216;16.482;2023-02-22T02:57:31;99848.34;;;9.23;100.00
35519;BME280;21627;48.216;16.482;2023-02-22T02:59:58;99836.31;;;9.23;100.00
35519;BME280;21627;48.216;16.482;2023-02-22T03:06:12;99850.06;;;9.24;100.00
35519;BME280;21627;48.216;16.482;2023-02-22T03:21:16;99857.75;;;9.19;100.00
35519;BME280;21627;48.216;16.482;2023-02-22T03:26:52;99856.91;;;9.19;100.00
35519;BME280;21627;48.216;16.482;2023-02-22T03:29:23;99856.91;;;9.19;100.00
35519;BME280;21627;48.216;16.482;2023-02-22T03:31:57;99861.19;;;9.17;100.00
35519;BME280;21627;48.216;16.482;2023-02-22T03:34:56;99856.03;;;9.17;100.00
35519;BME280;21627;48.216;16.482;2023-02-22T03:37:34;99855.16;;;9.16;100.00
35519;BME280;21627;48.216;16.482;2023-02-22T03:40:12;99862.03;;;9.14;100.00
35519;BME280;21627;48.216;16.482;2023-02-22T03:42:49;99860.31;;;9.16;100.00
35519;BME280;21627;48.216;16.482;2023-02-22T03:45:20;99849.94;;;9.08;100.00
35519;BME280;21627;48.216;16.482;2023-02-22T03:48:00;99863.75;;;9.14;100.00
35519;BME280;21627;48.216;16.482;2023-02-22T03:50:35;99858.56;;;9.10;100.00
35519;BME280;21627;48.216;16.482;2023-02-22T03:53:03;99862.84;;;9.08;100.00
35519;BME280;21627;48.216;16.482;2023-02-22T03:55:31;99857.72;;;9.10;100.00
35519;BME280;21627;48.216;16.482;2023-02-22T03:58:05;99861.13;;;9.12;100.00
35519;BME280;21627;48.216;16.482;2023-02-22T04:00:39;99864.63;;;9.13;100.00
35519;BME280;21627;48.216;16.482;2023-02-22T04:03:10;99862.88;;;9.12;100.00
35519;BME280;21627;48.216;16.482;2023-02-22T04:05:38;99867.16;;;9.11;100.00
35519;BME280;21627;48.216;16.482;2023-02-22T04:08:05;99858.56;;;9.12;100.00
35519;BME280;21627;48.216;16.482;2023-02-22T04:10:32;99856.00;;;9.14;100.00
35519;BME280;21627;48.216;16.482;2023-02-22T04:12:59;99843.13;;;9.14;100.00
35519;BME280;21627;48.216;16.482;2023-02-22T04:15:27;99831.88;;;9.07;100.00
35519;BME280;21627;48.216;16.482;2023-02-22T04:17:58;99847.44;;;9.16;100.00
35519;BME280;21627;48.216;16.482;2023-02-22T04:20:25;99852.59;;;9.18;100.00
35519;BME280;21627;48.216;16.482;2023-02-22T04:22:54;99840.56;;;9.15;100.00
35519;BME280;21627;48.216;16.482;2023-02-22T04:25:22;99834.50;;;9.13;100.00
35519;BME280;21627;48.216;16.482;2023-02-22T04:27:50;99844.00;;;9.19;100.00
35519;BME280;21627;48.216;16.482;2023-02-22T04:30:19;99845.72;;;9.18;100.00
35519;BME280;21627;48.216;16.482;2023-02-22T04:32:46;99825.00;;;9.06;100.00
35519;BME280;21627;48.216;16.482;2023-02-22T04:35:14;99846.56;;;9.16;100.00
35519;BME280;21627;48.216;16.482;2023-02-22T04:37:41;99837.94;;;9.12;100.00
35519;BME280;21627;48.216;16.482;2023-02-22T04:40:09;99844.00;;;9.16;100.00
35519;BME280;21627;48.216;16.482;2023-02-22T04:42:40;99840.56;;;9.15;100.00
35519;BME280;21627;48.216;16.482;2023-02-22T04:45:08;99835.34;;;9.09;100.00
35519;BME280;21627;48.216;16.482;2023-02-22T04:47:36;99819.81;;;9.01;100.00
35519;BME280;21627;48.216;16.482;2023-02-22T04:50:06;99828.44;;;9.09;100.00
35519;BME280;21627;48.216;16.482;2023-02-22T04:52:36;99834.50;;;9.13;100.00
35519;BME280;21627;48.216;16.482;2023-02-22T04:55:05;99818.94;;;9.01;100.00
35519;BME280;21627;48.216;16.482;2023-02-22T04:57:32;99837.94;;;9.12;100.00
35519;BME280;21627;48.216;16.482;2023-02-22T04:59:59;99837.09;;;9.10;100.00
35519;BME280;21627;48.216;16.482;2023-02-22T05:02:27;99839.66;;;9.15;100.00
35519;BME280;21627;48.216;16.482;2023-02-22T05:04:54;99833.59;;;9.09;100.00
35519;BME280;21627;48.216;16.482;2023-02-22T05:07:21;99835.41;;;9.15;100.00
35519;BME280;21627;48.216;16.482;2023-02-22T05:09:48;99825.88;;;9.09;100.00
35519;BME280;21627;48.216;16.482;2023-02-22T05:12:16;99836.22;;;9.14;100.00
35519;BME280;21627;48.216;16.482;2023-02-22T05:14:46;99836.28;;;9.17;100.00
35519;BME280;21627;48.216;16.482;2023-02-22T05:17:13;99834.53;;;9.16;100.00
35519;BME280;21627;48.216;16.482;2023-02-22T05:19:40;99815.56;;;9.09;100.00
35519;BME280;21627;48.216;16.482;2023-02-22T05:22:08;99821.59;;;9.10;100.00
35519;BME280;21627;48.216;16.482;2023-02-22T05:24:35;99822.47;;;9.10;100.00
35519;BME280;21627;48.216;16.482;2023-02-22T05:27:02;99825.91;;;9.14;100.00
35519;BME280;21627;48.216;16.482;2023-02-22T05:29:32;99841.44;;;9.22;100.00
35519;BME280;21627;48.216;16.482;2023-02-22T05:31:59;99819.84;;;9.09;100.00
35519;BME280;21627;48.216;16.482;2023-02-22T05:34:28;99840.59;;;9.20;100.00
35519;BME280;21627;48.216;16.482;2023-02-22T05:36:56;99832.81;;;9.15;100.00
35519;BME280;21627;48.216;16.482;2023-02-22T05:39:24;99831.06;;;9.14;100.00
35519;BME280;21627;48.216;16.482;2023-02-22T05:41:51;99843.16;;;9.20;100.00
35519;BME280;21627;48.216;16.482;2023-02-22T05:44:18;99839.75;;;9.22;100.00
35519;BME280;21627;48.216;16.482;2023-02-22T05:46:46;99831.06;;;9.14;100.00
35519;BME280;21627;48.216;16.482;2023-02-22T05:49:13;99846.59;;;9.20;100.00
35519;BME280;21627;48.216;16.482;2023-02-22T05:51:41;99847.50;;;9.22;100.00
35519;BME280;21627;48.216;16.482;2023-02-22T05:54:08;99831.91;;;9.12;100.00
35519;BME280;21627;48.216;16.482;2023-02-22T05:56:35;99829.38;;;9.16;100.00
35519;BME280;21627;48.216;16.482;2023-02-22T05:59:02;99850.09;;;9.25;100.00
35519;BME280;21627;48.216;16.482;2023-02-22T06:01:29;99838.84;;;9.19;100.00
35519;BME280;21627;48.216;16.482;2023-02-22T06:04:00;99853.53;;;9.27;100.00
35519;BME280;21627;48.216;16.482;2023-02-22T06:06:27;99844.03;;;9.22;100.00
35519;BME280;21627;48.216;16.482;2023-02-22T06:08:54;99856.13;;;9.27;100.00
35519;BME280;21627;48.216;16.482;2023-02-22T06:11:21;99858.69;;;9.29;100.00
35519;BME280;21627;48.216;16.482;2023-02-22T06:13:51;99849.22;;;9.26;100.00
35519;BME280;21627;48.216;16.482;2023-02-22T06:16:20;99866.44;;;9.32;100.00
35519;BME280;21627;48.216;16.482;2023-02-22T06:18:48;99853.53;;;9.29;100.00
35519;BME280;21627;48.216;16.482;2023-02-22T06:21:16;99857.88;;;9.33;100.00
35519;BME280;21627;48.216;16.482;2023-02-22T06:23:44;99850.13;;;9.33;100.00
35519;BME280;21627;48.216;16.482;2023-02-22T06:26:18;99868.22;;;9.42;100.00
35519;BME280;21627;48.216;16.482;2023-02-22T06:28:45;99863.94;;;9.44;100.00
35519;BME280;21627;48.216;16.482;2023-02-22T06:31:13;99853.63;;;9.43;100.00
35519;BME280;21627;48.216;16.482;2023-02-22T06:33:43;99870.00;;;9.48;100.00
35519;BME280;21627;48.216;16.482;2023-02-22T06:36:11;99861.41;;;9.52;100.00
35519;BME280;21627;48.216;16.482;2023-02-22T06:38:38;99864.03;;;9.53;100.00
35519;BME280;21627;48.216;16.482;2023-02-22T06:41:05;99857.16;;;9.57;100.00
35519;BME280;21627;48.216;16.482;2023-02-22T06:43:34;99862.34;;;9.62;100.00
35519;BME280;21627;48.216;16.482;2023-02-22T06:46:01;99869.25;;;9.66;100.00
35519;BME280;21627;48.216;16.482;2023-02-22T06:48:29;99868.41;;;9.71;100.00
35519;BME280;21627;48.216;16.482;2023-02-22T06:50:59;99867.56;;;9.74;100.00
35519;BME280;21627;48.216;16.482;2023-02-22T06:53:26;99861.56;;;9.78;100.00
35519;BME280;21627;48.216;16.482;2023-02-22T06:55:54;99860.72;;;9.79;100.00
35519;BME280;21627;48.216;16.482;2023-02-22T06:58:21;99859.00;;;9.84;100.00
35519;BME280;21627;48.216;16.482;2023-02-22T07:00:49;99861.66;;;9.93;100.00
35519;BME280;21627;48.216;16.482;2023-02-22T07:03:16;99859.94;;;10.02;99.55
35519;BME280;21627;48.216;16.482;2023-02-22T07:05:44;99862.53;;;10.08;98.11
35519;BME280;21627;48.216;16.482;2023-02-22T07:08:12;99866.03;;;10.19;94.98
35519;BME280;21627;48.216;16.482;2023-02-22T07:10:39;99852.28;;;10.22;94.39
35519;BME280;21627;48.216;16.482;2023-02-22T07:13:10;99876.47;;;10.36;91.27
35519;BME280;21627;48.216;16.482;2023-02-22T07:15:37;99863.53;;;10.40;89.12
35519;BME280;21627;48.216;16.482;2023-02-22T07:18:04;99866.19;;;10.56;90.29
35519;BME280;21627;48.216;16.482;2023-02-22T07:20:33;99864.44;;;10.66;89.36
35519;BME280;21627;48.216;16.482;2023-02-22T07:23:00;99867.06;;;10.76;90.30
35519;BME280;21627;48.216;16.482;2023-02-22T07:25:27;99854.16;;;10.81;86.99
35519;BME280;21627;48.216;16.482;2023-02-22T07:27:55;99867.06;;;10.98;86.83
35519;BME280;21627;48.216;16.482;2023-02-22T07:30:31;99865.34;;;11.04;86.86
35519;BME280;21627;48.216;16.482;2023-02-22T07:33:07;99855.00;;;11.11;86.04
35519;BME280;21627;48.216;16.482;2023-02-22T07:35:45;99855.00;;;11.04;85.65
35519;BME280;21627;48.216;16.482;2023-02-22T07:38:17;99861.88;;;11.21;85.47
35519;BME280;21627;48.216;16.482;2023-02-22T07:40:45;99861.88;;;11.27;84.43
35519;BME280;21627;48.216;16.482;2023-02-22T07:43:19;99868.78;;;11.28;82.09
35519;BME280;21627;48.216;16.482;2023-02-22T07:45:48;99858.44;;;11.25;80.97
35519;BME280;21627;48.216;16.482;2023-02-22T07:48:19;99862.75;;;11.32;78.93
35519;BME280;21627;48.216;16.482;2023-02-22T07:50:47;99861.88;;;11.42;78.14
35519;BME280;21627;48.216;16.482;2023-02-22T07:53:19;99872.22;;;11.41;77.41
35519;BME280;21627;48.216;16.482;2023-02-22T07:55:47;99854.94;;;11.47;77.04
35519;BME280;21627;48.216;16.482;2023-02-22T07:58:24;99861.84;;;11.52;77.89
35519;BME280;21627;48.216;16.482;2023-02-22T08:00:55;99848.91;;;11.45;76.58
35519;BME280;21627;48.216;16.482;2023-02-22T08:03:24;99851.50;;;11.52;75.44
35519;BME280;21627;48.216;16.482;2023-02-22T08:05:55;99854.03;;;11.68;76.31
35519;BME280;21627;48.216;16.482;2023-02-22T08:08:25;99866.97;;;11.72;75.96
35519;BME280;21627;48.216;16.482;2023-02-22T08:10:59;99867.78;;;11.86;78.74
35519;BME280;21627;48.216;16.482;2023-02-22T08:13:26;99869.56;;;11.87;83.33
35519;BME280;21627;48.216;16.482;2023-02-22T08:15:54;99851.44;;;11.73;85.43
35519;BME280;21627;48.216;16.482;2023-02-22T08:18:25;99859.16;;;11.81;85.74
35519;BME280;21627;48.216;16.482;2023-02-22T08:20:53;99853.13;;;11.74;86.17
35519;BME280;21627;48.216;16.482;2023-02-22T08:23:23;99859.19;;;11.88;85.72
35519;BME280;21627;48.216;16.482;2023-02-22T08:25:51;99863.44;;;12.05;85.71
35519;BME280;21627;48.216;16.482;2023-02-22T08:28:22;99859.13;;;11.99;86.00
35519;BME280;21627;48.216;16.482;2023-02-22T08:30:50;99844.50;;;11.87;87.05
35519;BME280;21627;48.216;16.482;2023-02-22T08:33:17;99856.56;;;11.91;87.88
35519;BME280;21627;48.216;16.482;2023-02-22T08:35:48;99869.50;;;11.99;87.73
35519;BME280;21627;48.216;16.482;2023-02-22T08:38:28;99864.22;;;12.21;87.03
35519;BME280;21627;48.216;16.482;2023-02-22T08:40:56;99863.34;;;12.28;84.75
35519;BME280;21627;48.216;16.482;2023-02-22T08:43:23;99860.75;;;12.28;85.74
35519;BME280;21627;48.216;16.482;2023-02-22T08:45:51;99870.22;;;12.33;82.99
35519;BME280;21627;48.216;16.482;2023-02-22T08:48:19;99856.38;;;12.34;82.74
35519;BME280;21627;48.216;16.482;2023-02-22T08:50:47;99856.41;;;12.30;83.87
35519;BME280;21627;48.216;16.482;2023-02-22T08:53:15;99850.34;;;12.31;82.86
35519;BME280;21627;48.216;16.482;2023-02-22T08:55:43;99857.19;;;12.40;81.83
35519;BME280;21627;48.216;16.482;2023-02-22T08:58:11;99854.59;;;12.46;82.32
35519;BME280;21627;48.216;16.482;2023-02-22T09:00:40;99864.06;;;12.48;81.29
35519;BME280;21627;48.216;16.482;2023-02-22T09:03:11;99866.69;;;12.50;81.40
35519;BME280;21627;48.216;16.482;2023-02-22T09:05:41;99866.66;;;12.51;82.78
35519;BME280;21627;48.216;16.482;2023-02-22T09:08:09;99867.41;;;12.67;83.16
35519;BME280;21627;48.216;16.482;2023-02-22T09:10:36;99857.88;;;12.69;80.30
35519;BME280;21627;48.216;16.482;2023-02-22T09:13:04;99864.69;;;12.86;76.61
35519;BME280;21627;48.216;16.482;2023-02-22T09:15:35;99867.25;;;12.90;76.90
35519;BME280;21627;48.216;16.482;2023-02-22T09:18:05;99871.53;;;12.96;73.70
35519;BME280;21627;48.216;16.482;2023-02-22T09:20:34;99869.72;;;13.03;72.03
35519;BME280;21627;48.216;16.482;2023-02-22T09:23:04;99867.13;;;13.03;71.18
35519;BME280;21627;48.216;16.482;2023-02-22T09:25:35;99865.41;;;13.06;72.12
35519;BME280;21627;48.216;16.482;2023-02-22T09:28:02;99859.25;;;13.16;71.78
35519;BME280;21627;48.216;16.482;2023-02-22T09:30:33;99868.66;;;13.31;71.64
35519;BME280;21627;48.216;16.482;2023-02-22T09:33:10;99872.00;;;13.42;71.25
35519;BME280;21627;48.216;16.482;2023-02-22T09:35:39;99852.84;;;13.53;70.80
35519;BME280;21627;48.216;16.482;2023-02-22T09:38:09;99855.91;;;13.92;68.13
35519;BME280;21627;48.216;16.482;2023-02-22T09:40:44;99847.13;;;14.00;66.98
35519;BME280;21627;48.216;16.482;2023-02-22T09:57:38;99842.41;;;14.30;64.78
35519;BME280;21627;48.216;16.482;2023-02-22T10:00:21;99849.47;;;14.22;64.28
35519;BME280;21627;48.216;16.482;2023-02-22T10:08:31;99839.81;;;14.30;67.86
35519;BME280;21627;48.216;16.482;2023-02-22T10:16:36;99836.03;;;14.51;67.89
35519;BME280;21627;48.216;16.482;2023-02-22T10:25:18;99821.31;;;14.50;67.25
35519;BME280;21627;48.216;16.482;2023-02-22T10:27:59;99821.16;;;14.62;66.88
35519;BME280;21627;48.216;16.482;2023-02-22T10:30:33;99812.41;;;14.66;64.71
35519;BME280;21627;48.216;16.482;2023-02-22T10:33:18;99809.84;;;14.63;67.44
35519;BME280;21627;48.216;16.482;2023-02-22T10:35:47;99821.69;;;14.83;66.06
35519;BME280;21627;48.216;16.482;2023-02-22T10:43:38;99815.22;;;15.07;63.33
35519;BME280;21627;48.216;16.482;2023-02-22T10:46:11;99810.84;;;15.09;62.28
35519;BME280;21627;48.216;16.482;2023-02-22T10:48:42;99806.31;;;15.19;62.52
35519;BME280;21627;48.216;16.482;2023-02-22T10:51:14;99796.75;;;15.19;61.85
35519;BME280;21627;48.216;16.482;2023-02-22T10:53:42;99796.88;;;15.14;60.16
35519;BME280;21627;48.216;16.482;2023-02-22T10:56:22;99800.91;;;15.31;61.23
35519;BME280;21627;48.216;16.482;2023-02-22T10:59:00;99776.44;;;15.40;62.19
35519;BME280;21627;48.216;16.482;2023-02-22T11:04:11;99795.00;;;15.66;60.09
35519;BME280;21627;48.216;16.482;2023-02-22T11:06:42;99787.25;;;15.62;59.30
35519;BME280;21627;48.216;16.482;2023-02-22T11:09:20;99781.19;;;15.61;59.52
35519;BME280;21627;48.216;16.482;2023-02-22T11:12:10;99790.34;;;15.82;56.17
35519;BME280;21627;48.216;16.482;2023-02-22T11:14:37;99783.19;;;15.93;56.22
35519;BME280;21627;48.216;16.482;2023-02-22T11:17:08;99768.53;;;15.88;54.43
35519;BME280;21627;48.216;16.482;2023-02-22T11:19:46;99767.22;;;16.07;53.48
35519;BME280;21627;48.216;16.482;2023-02-22T11:25:00;99774.00;;;16.16;52.91
35519;BME280;21627;48.216;16.482;2023-02-22T11:27:43;99775.78;;;16.14;52.16
35519;BME280;21627;48.216;16.482;2023-02-22T11:30:30;99762.56;;;16.20;52.57
35519;BME280;21627;48.216;16.482;2023-02-22T11:35:34;99766.25;;;16.13;50.64
35519;BME280;21627;48.216;16.482;2023-02-22T11:38:26;99758.03;;;15.91;51.24
35519;BME280;21627;48.216;16.482;2023-02-22T11:41:16;99755.97;;;16.05;51.21
35519;BME280;21627;48.216;16.482;2023-02-22T11:43:50;99752.53;;;16.03;49.77
35519;BME280;21627;48.216;16.482;2023-02-22T11:46:21;99758.53;;;16.07;50.24
35519;BME280;21627;48.216;16.482;2023-02-22T11:49:05;99751.06;;;15.90;49.95
35519;BME280;21627;48.216;16.482;2023-02-22T11:51:55;99748.59;;;15.85;51.83
35519;BME280;21627;48.216;16.482;2023-02-22T12:05:43;99741.84;;;16.14;52.16
35519;BME280;21627;48.216;16.482;2023-02-22T12:08:36;99745.38;;;16.13;51.49
35519;BME280;21627;48.216;16.482;2023-02-22T12:19:57;99726.31;;;16.09;51.78
35519;BME280;21627;48.216;16.482;2023-02-22T12:22:32;99728.91;;;16.11;51.68
35519;BME280;21627;48.216;16.482;2023-02-22T12:25:22;99733.19;;;16.13;52.39
35519;BME280;21627;48.216;16.482;2023-02-22T12:28:20;99727.31;;;16.04;51.78
35519;BME280;21627;48.216;16.482;2023-02-22T12:31:13;99714.13;;;15.72;52.34
35519;BME280;21627;48.216;16.482;2023-02-22T12:36:50;99714.06;;;15.74;51.63
35519;BME280;21627;48.216;16.482;2023-02-22T12:39:38;99714.78;;;15.81;51.69
35519;BME280;21627;48.216;16.482;2023-02-22T12:45:50;99711.84;;;15.96;52.57
35519;BME280;21627;48.216;16.482;2023-02-22T12:48:59;99704.09;;;16.64;50.71
35519;BME280;21627;48.216;16.482;2023-02-22T13:00:26;99698.59;;;17.99;46.53
35519;BME280;21627;48.216;16.482;2023-02-22T13:03:03;99691.81;;;18.48;45.86
35519;BME280;21627;48.216;16.482;2023-02-22T13:05:37;99684.34;;;18.87;44.34
35519;BME280;21627;48.216;16.482;2023-02-22T13:08:33;99686.22;;;19.09;43.50
35519;BME280;21627;48.216;16.482;2023-02-22T13:19:37;99685.91;;;19.41;41.79
35519;BME280;21627;48.216;16.482;2023-02-22T13:25:13;99679.66;;;19.91;41.66
35519;BME280;21627;48.216;16.482;2023-02-22T13:28:02;99685.31;;;20.02;40.86
35519;BME280;21627;48.216;16.482;2023-02-22T13:30:50;99675.88;;;19.76;40.19
35519;BME280;21627;48.216;16.482;2023-02-22T13:39:54;99683.19;;;19.66;41.46
35519;BME280;21627;48.216;16.482;2023-02-22T13:52:01;99664.22;;;19.60;40.69
35519;BME280;21627;48.216;16.482;2023-02-22T13:55:07;99655.91;;;19.49;41.49
35519;BME280;21627;48.216;16.482;2023-02-22T13:57:44;99659.91;;;19.35;41.32
35519;BME280;21627;48.216;16.482;2023-02-22T14:00:32;99652.31;;;19.51;40.35
35519;BME280;21627;48.216;16.482;2023-02-22T14:13:29;99646.38;;;20.14;39.95
35519;BME280;21627;48.216;16.482;2023-02-22T14:19:02;99649.06;;;20.75;39.04
35519;BME280;21627;48.216;16.482;2023-02-22T14:21:33;99641.84;;;20.60;37.82
35519;BME280;21627;48.216;16.482;2023-02-22T14:24:14;99648.25;;;20.32;40.33
35519;BME280;21627;48.216;16.482;2023-02-22T14:26:58;99647.09;;;19.95;40.08
35519;BME280;21627;48.216;16.482;2023-02-22T14:29:26;99634.28;;;20.09;39.93
35519;BME280;21627;48.216;16.482;2023-02-22T14:32:04;99640.06;;;20.18;40.61
35519;BME280;21627;48.216;16.482;2023-02-22T14:34:51;99644.75;;;19.89;39.70
35519;BME280;21627;48.216;16.482;2023-02-22T14:37:26;99647.28;;;19.91;41.10
35519;BME280;21627;48.216;16.482;2023-02-22T14:43:17;99633.34;;;19.68;40.04
35519;BME280;21627;48.216;16.482;2023-02-22T14:45:55;99640.06;;;19.52;41.16
35519;BME280;21627;48.216;16.482;2023-02-22T14:48:29;99622.75;;;19.24;41.50
35519;BME280;21627;48.216;16.482;2023-02-22T14:51:20;99637.63;;;19.00;43.30
35519;BME280;21627;48.216;16.482;2023-02-22T14:57:20;99632.09;;;18.06;44.88
35519;BME280;21627;48.216;16.482;2023-02-22T15:02:51;99632.75;;;18.12;45.28
35519;BME280;21627;48.216;16.482;2023-02-22T15:05:19;99629.44;;;18.07;45.76
35519;BME280;21627;48.216;16.482;2023-02-22T15:07:57;99633.91;;;17.76;46.28
35519;BME280;21627;48.216;16.482;2023-02-22T15:10:41;99632.47;;;17.65;47.25
35519;BME280;21627;48.216;16.482;2023-02-22T15:13:25;99617.75;;;17.33;46.98
35519;BME280;21627;48.216;16.482;2023-02-22T15:16:05;99625.06;;;16.92;48.45
35519;BME280;21627;48.216;16.482;2023-02-22T15:18:46;99621.78;;;16.51;49.25
35519;BME280;21627;48.216;16.482;2023-02-22T15:21:25;99622.00;;;16.43;49.51
35519;BME280;21627;48.216;16.482;2023-02-22T15:24:04;99624.25;;;16.23;50.64
35519;BME280;21627;48.216;16.482;2023-02-22T15:26:38;99625.41;;;16.11;51.06
35519;BME280;21627;48.216;16.482;2023-02-22T15:29:26;99624.13;;;15.92;51.88
35519;BME280;21627;48.216;16.482;2023-02-22T15:31:58;99623.25;;;15.93;51.59
35519;BME280;21627;48.216;16.482;2023-02-22T15:34:30;99617.69;;;15.71;53.36
35519;BME280;21627;48.216;16.482;2023-02-22T15:37:20;99629.66;;;15.39;54.19
35519;BME280;21627;48.216;16.482;2023-02-22T15:39:52;99629.69;;;15.38;54.58
35519;BME280;21627;48.216;16.482;2023-02-22T15:42:26;99624.53;;;15.34;55.18
35519;BME280;21627;48.216;16.482;2023-02-22T15:44:59;99618.72;;;15.23;55.88
35519;BME280;21627;48.216;16.482;2023-02-22T15:47:29;99622.56;;;15.05;56.61
35519;BME280;21627;48.216;16.482;2023-02-22T15:50:25;99633.56;;;14.75;57.87
35519;BME280;21627;48.216;16.482;2023-02-22T15:55:41;99625.16;;;14.60;58.35
35519;BME280;21627;48.216;16.482;2023-02-22T15:58:24;99628.16;;;14.36;59.65
35519;BME280;21627;48.216;16.482;2023-02-22T16:03:50;99616.66;;;13.99;61.23
35519;BME280;21627;48.216;16.482;2023-02-22T16:06:30;99622.81;;;13.94;61.72
35519;BME280;21627;48.216;16.482;2023-02-22T16:09:19;99623.06;;;13.75;62.86
35519;BME280;21627;48.216;16.482;2023-02-22T16:12:25;99624.25;;;13.53;63.98
35519;BME280;21627;48.216;16.482;2023-02-22T16:14:54;99620.97;;;13.41;64.51
35519;BME280;21627;48.216;16.482;2023-02-22T16:17:38;99615.03;;;13.32;64.90